createdAt,value
2019-01-20T00:01:35.576Z,-4.06
2019-01-20T00:04:05.047Z,-4.12
2019-01-20T00:06:35.045Z,-4.14
2019-01-20T00:09:07.283Z,-4.16
2019-01-20T00:11:36.869Z,-4.19
2019-01-20T00:14:06.473Z,-4.22
2019-01-20T00:16:35.855Z,-4.18
2019-01-20T00:19:05.040Z,-4.24
2019-01-20T00:21:34.459Z,-4.36
2019-01-20T00:24:03.661Z,-4.33
2019-01-20T00:26:32.797Z,-4.33
2019-01-20T00:29:02.003Z,-4.24
2019-01-20T00:31:31.200Z,-4.21
2019-01-20T00:34:00.255Z,-4.26
2019-01-20T00:36:29.391Z,-4.39
2019-01-20T00:38:58.483Z,-4.37
2019-01-20T00:41:27.693Z,-4.46
2019-01-20T00:43:56.949Z,-4.41
2019-01-20T00:46:26.169Z,-4.51
2019-01-20T00:48:55.355Z,-4.42
2019-01-20T00:51:24.688Z,-4.50
2019-01-20T00:53:53.908Z,-4.40
2019-01-20T00:56:23.141Z,-4.38
2019-01-20T00:58:52.511Z,-4.49
2019-01-20T01:01:21.628Z,-4.58
2019-01-20T01:03:50.758Z,-4.70
2019-01-20T01:06:21.258Z,-4.81
2019-01-20T01:08:50.381Z,-4.70
2019-01-20T01:11:19.453Z,-4.68
2019-01-20T01:13:48.574Z,-4.71
2019-01-20T01:16:17.654Z,-4.72
2019-01-20T01:18:47.045Z,-4.80
2019-01-20T01:21:16.444Z,-4.82
2019-01-20T01:23:45.566Z,-4.79
2019-01-20T01:26:14.676Z,-4.71
2019-01-20T01:28:44.005Z,-4.70
2019-01-20T01:31:13.142Z,-4.64
2019-01-20T01:33:42.370Z,-4.65
2019-01-20T01:36:11.531Z,-4.62
2019-01-20T01:38:40.831Z,-4.58
2019-01-20T01:41:10.197Z,-4.61
2019-01-20T01:43:39.566Z,-4.51
2019-01-20T01:46:08.701Z,-4.53
2019-01-20T01:48:38.025Z,-4.54
2019-01-20T01:51:07.127Z,-4.59
2019-01-20T01:53:36.222Z,-4.65
2019-01-20T01:56:05.844Z,-4.73
2019-01-20T01:58:34.979Z,-4.67
2019-01-20T02:01:04.739Z,-4.54
2019-01-20T02:03:33.958Z,-4.50
2019-01-20T02:06:03.196Z,-4.59
2019-01-20T02:08:32.390Z,-4.70
2019-01-20T02:11:01.786Z,-4.54
2019-01-20T02:13:30.876Z,-4.67
2019-01-20T02:16:00.024Z,-4.58
2019-01-20T02:18:29.275Z,-4.51
2019-01-20T02:20:58.421Z,-4.37
2019-01-20T02:23:27.800Z,-4.29
2019-01-20T02:25:57.125Z,-4.23
2019-01-20T02:28:26.253Z,-4.21
2019-01-20T02:30:55.376Z,-4.17
2019-01-20T02:33:24.687Z,-4.13
2019-01-20T02:35:53.824Z,-4.11
2019-01-20T02:38:23.419Z,-4.05
2019-01-20T02:40:52.641Z,-4.09
2019-01-20T02:43:21.739Z,-4.07
2019-01-20T02:45:51.086Z,-4.10
2019-01-20T02:48:20.202Z,-4.04
2019-01-20T02:50:49.429Z,-3.97
2019-01-20T02:53:18.522Z,-3.91
2019-01-20T02:55:47.826Z,-3.92
2019-01-20T02:58:17.179Z,-4.02
2019-01-20T03:00:46.397Z,-4.05
2019-01-20T03:03:15.516Z,-4.01
2019-01-20T03:05:44.633Z,-4.03
2019-01-20T03:08:13.860Z,-4.04
2019-01-20T03:10:42.954Z,-3.94
2019-01-20T03:13:12.107Z,-3.96
2019-01-20T03:15:41.361Z,-4.02
2019-01-20T03:18:10.621Z,-3.90
2019-01-20T03:20:39.838Z,-3.85
2019-01-20T03:23:09.134Z,-3.80
2019-01-20T03:25:38.334Z,-3.85
2019-01-20T03:28:07.462Z,-3.82
2019-01-20T03:30:36.592Z,-3.76
2019-01-20T03:33:06.086Z,-3.83
2019-01-20T03:35:35.446Z,-3.88
2019-01-20T03:38:04.583Z,-3.84
2019-01-20T03:40:33.661Z,-3.81
2019-01-20T03:43:02.790Z,-3.78
2019-01-20T03:45:32.069Z,-3.83
2019-01-20T03:48:01.286Z,-3.81
2019-01-20T03:50:30.598Z,-3.82
2019-01-20T03:52:59.800Z,-3.84
2019-01-20T03:55:29.018Z,-3.89
2019-01-20T03:57:58.317Z,-3.89
2019-01-20T04:00:27.516Z,-3.79
2019-01-20T04:03:00.133Z,-3.80
2019-01-20T04:05:29.212Z,-3.79
2019-01-20T04:07:58.496Z,-3.77
2019-01-20T04:10:27.696Z,-3.82
2019-01-20T04:12:57.012Z,-3.76
2019-01-20T04:15:27.083Z,-3.77
2019-01-20T04:17:56.218Z,-3.69
2019-01-20T04:20:25.319Z,-3.61
2019-01-20T04:22:54.613Z,-3.61
2019-01-20T04:25:23.834Z,-3.63
2019-01-20T04:27:52.908Z,-3.63
2019-01-20T04:30:22.230Z,-3.63
2019-01-20T04:32:51.521Z,-3.63
2019-01-20T04:35:20.605Z,-3.53
2019-01-20T04:37:49.895Z,-3.43
2019-01-20T04:40:21.143Z,-3.52
2019-01-20T04:42:50.223Z,-3.49
2019-01-20T04:45:19.386Z,-3.50
2019-01-20T04:47:48.651Z,-3.59
2019-01-20T04:50:25.096Z,-3.60
2019-01-20T04:52:54.211Z,-3.56
2019-01-20T04:55:23.299Z,-3.50
2019-01-20T04:57:55.588Z,-3.55
2019-01-20T05:00:28.647Z,-3.60
2019-01-20T05:02:57.767Z,-3.62
2019-01-20T05:05:27.109Z,-3.62
2019-01-20T05:07:56.222Z,-3.61
2019-01-20T05:10:25.515Z,-3.51
2019-01-20T05:12:54.738Z,-3.52
2019-01-20T05:15:25.367Z,-3.52
2019-01-20T05:17:54.690Z,-3.53
2019-01-20T05:20:24.063Z,-3.58
2019-01-20T05:22:53.199Z,-3.60
2019-01-20T05:25:22.303Z,-3.54
2019-01-20T05:27:51.625Z,-3.56
2019-01-20T05:30:23.192Z,-3.56
2019-01-20T05:32:52.312Z,-3.56
2019-01-20T05:35:21.658Z,-3.52
2019-01-20T05:37:50.738Z,-3.52
2019-01-20T05:40:20.453Z,-3.49
2019-01-20T05:42:49.984Z,-3.47
2019-01-20T05:45:21.105Z,-3.47
2019-01-20T05:47:50.185Z,-3.45
2019-01-20T05:50:19.822Z,-3.43
2019-01-20T05:52:48.947Z,-3.43
2019-01-20T05:55:18.068Z,-3.50
2019-01-20T05:57:47.161Z,-3.52
2019-01-20T06:00:24.135Z,-3.60
2019-01-20T06:02:53.399Z,-3.63
2019-01-20T06:05:22.673Z,-3.65
2019-01-20T06:07:51.842Z,-3.75
2019-01-20T06:10:21.123Z,-3.84
2019-01-20T06:12:54.254Z,-3.78
2019-01-20T06:15:22.080Z,-3.74
2019-01-20T06:17:51.177Z,-3.72
2019-01-20T06:20:20.299Z,-3.66
2019-01-20T06:22:49.431Z,-3.61
2019-01-20T06:25:18.547Z,-3.63
2019-01-20T06:27:47.835Z,-3.59
2019-01-20T06:30:19.748Z,-3.60
2019-01-20T06:32:48.828Z,-3.61
2019-01-20T06:35:18.305Z,-3.64
2019-01-20T06:37:47.388Z,-3.67
2019-01-20T06:40:16.553Z,-3.71
2019-01-20T06:42:46.253Z,-3.79
2019-01-20T06:45:15.544Z,-3.79
2019-01-20T06:47:44.633Z,-3.82
2019-01-20T06:50:15.336Z,-3.81
2019-01-20T06:52:44.594Z,-3.74
2019-01-20T06:55:14.173Z,-3.78
2019-01-20T06:57:43.413Z,-3.69
2019-01-20T07:00:15.806Z,-3.66
2019-01-20T07:02:45.369Z,-3.61
2019-01-20T07:05:14.724Z,-3.56
2019-01-20T07:07:44.007Z,-3.56
2019-01-20T07:10:14.430Z,-3.42
2019-01-20T07:12:43.667Z,-3.57
2019-01-20T07:15:18.021Z,-3.79
2019-01-20T07:17:47.446Z,-3.79
2019-01-20T07:20:17.007Z,-3.80
2019-01-20T07:22:46.358Z,-3.80
2019-01-20T07:25:15.793Z,-3.82
2019-01-20T07:27:45.123Z,-3.77
2019-01-20T07:30:16.747Z,-3.73
2019-01-20T07:32:46.028Z,-3.55
2019-01-20T07:35:16.285Z,-3.42
2019-01-20T07:37:45.926Z,-3.39
2019-01-20T07:40:18.031Z,-3.34
2019-01-20T07:42:47.928Z,-3.27
2019-01-20T07:45:17.503Z,-3.24
2019-01-20T07:47:47.624Z,-3.19
2019-01-20T07:50:19.162Z,-3.12
2019-01-20T07:52:49.343Z,-3.03
2019-01-20T07:55:18.708Z,-3.06
2019-01-20T07:57:48.259Z,-2.99
2019-01-20T08:00:19.999Z,-3.01
2019-01-20T08:02:50.175Z,-3.02
2019-01-20T08:05:19.772Z,-2.98
2019-01-20T08:07:49.959Z,-2.91
2019-01-20T08:10:21.781Z,-2.99
2019-01-20T08:12:50.893Z,-2.87
2019-01-20T08:15:20.315Z,-2.84
2019-01-20T08:17:50.064Z,-2.79
2019-01-20T08:20:20.123Z,-2.75
2019-01-20T08:22:49.779Z,-2.77
2019-01-20T08:25:19.179Z,-2.73
2019-01-20T08:27:48.568Z,-2.69
2019-01-20T08:30:20.775Z,-2.69
2019-01-20T08:32:50.017Z,-2.64
2019-01-20T08:35:19.213Z,-2.67
2019-01-20T08:37:48.881Z,-2.58
2019-01-20T08:40:26.243Z,-2.47
2019-01-20T08:42:55.443Z,-2.45
2019-01-20T08:46:01.379Z,-2.35
2019-01-20T08:48:32.392Z,-2.39
2019-01-20T08:51:01.866Z,-2.31
2019-01-20T08:53:31.103Z,-2.24
2019-01-20T08:56:00.416Z,-2.22
2019-01-20T08:58:29.558Z,-2.37
2019-01-20T09:00:58.891Z,-2.22
2019-01-20T09:03:27.964Z,-2.20
2019-01-20T09:05:57.410Z,-2.20
2019-01-20T09:08:26.967Z,-2.12
2019-01-20T09:10:56.105Z,-1.97
2019-01-20T09:13:25.763Z,-1.76
2019-01-20T09:15:55.091Z,-1.66
2019-01-20T09:18:24.583Z,-1.68
2019-01-20T09:20:54.030Z,-1.68
2019-01-20T09:23:23.236Z,-1.61
2019-01-20T09:25:52.381Z,-1.73
2019-01-20T09:28:21.506Z,-1.57
2019-01-20T09:30:51.108Z,-1.57
2019-01-20T09:33:24.723Z,-1.67
2019-01-20T09:35:53.782Z,-1.73
2019-01-20T09:38:22.974Z,-1.57
2019-01-20T09:40:52.481Z,-1.63
2019-01-20T09:43:21.637Z,-1.79
2019-01-20T09:45:52.158Z,-1.70
2019-01-20T09:48:21.775Z,-1.72
2019-01-20T09:50:51.204Z,-1.70
2019-01-20T09:53:20.489Z,-1.62
2019-01-20T09:55:49.789Z,-1.69
2019-01-20T09:58:19.560Z,-1.52
2019-01-20T10:00:48.858Z,-1.52
2019-01-20T10:03:18.255Z,-1.46
2019-01-20T10:05:47.360Z,-1.42
2019-01-20T10:08:16.691Z,-1.44
2019-01-20T10:10:45.837Z,-1.40
2019-01-20T10:13:15.287Z,-1.44
2019-01-20T10:15:44.445Z,-1.37
2019-01-20T10:18:13.683Z,-1.27
2019-01-20T10:20:42.810Z,-1.36
2019-01-20T10:23:12.083Z,-1.19
2019-01-20T10:25:41.175Z,-1.15
2019-01-20T10:28:12.584Z,-1.13
2019-01-20T10:30:41.811Z,-1.08
2019-01-20T10:33:13.697Z,-0.99
2019-01-20T10:35:47.238Z,-1.04
2019-01-20T10:38:18.274Z,-0.97
2019-01-20T10:40:47.602Z,-0.97
2019-01-20T10:43:16.848Z,-1.03
2019-01-20T10:45:45.975Z,-0.95
2019-01-20T10:48:15.301Z,-0.92
2019-01-20T10:50:44.498Z,-0.91
2019-01-20T10:53:13.712Z,-0.89
2019-01-20T10:55:43.440Z,-0.95
2019-01-20T10:58:12.864Z,-0.90
2019-01-20T11:00:42.570Z,-0.96
2019-01-20T11:03:12.374Z,-0.93
2019-01-20T11:05:41.742Z,-0.79
2019-01-20T11:08:10.924Z,-0.74
2019-01-20T11:10:40.335Z,-0.63
2019-01-20T11:13:09.520Z,-0.66
2019-01-20T11:15:38.771Z,-0.64
2019-01-20T11:18:09.731Z,-0.58
2019-01-20T11:20:38.857Z,-0.71
2019-01-20T11:23:08.361Z,-0.51
2019-01-20T11:25:42.994Z,-0.47
2019-01-20T11:28:12.450Z,-0.36
2019-01-20T11:30:41.830Z,-0.40
2019-01-20T11:33:10.917Z,-0.51
2019-01-20T11:35:40.064Z,-0.44
2019-01-20T11:38:09.201Z,-0.21
2019-01-20T11:40:38.490Z,-0.20
2019-01-20T11:43:07.778Z,-0.29
2019-01-20T11:45:37.774Z,-0.17
2019-01-20T11:48:08.449Z,-0.10
2019-01-20T11:50:38.079Z,-0.01
2019-01-20T11:53:07.332Z,0.14
2019-01-20T11:55:36.742Z,0.17
2019-01-20T11:58:05.915Z,0.10
2019-01-20T12:00:37.183Z,0.16
2019-01-20T12:03:08.210Z,0.16
2019-01-20T12:05:40.452Z,0.33
2019-01-20T12:08:09.813Z,0.17
2019-01-20T12:10:39.122Z,0.17
2019-01-20T12:13:13.734Z,0.50
2019-01-20T12:15:43.130Z,0.88
2019-01-20T12:18:12.265Z,0.98
2019-01-20T12:20:41.415Z,1.08
2019-01-20T12:23:10.709Z,1.04
2019-01-20T12:25:40.039Z,1.18
2019-01-20T12:28:09.234Z,1.16
2019-01-20T12:30:39.698Z,1.28
2019-01-20T12:33:09.325Z,1.22
2019-01-20T12:35:38.701Z,1.06
2019-01-20T12:38:08.179Z,0.97
2019-01-20T12:40:46.203Z,1.02
2019-01-20T12:43:15.389Z,1.02
2019-01-20T12:45:44.742Z,1.06
2019-01-20T12:48:14.462Z,1.48
2019-01-20T12:50:43.799Z,1.75
2019-01-20T12:53:13.337Z,1.57
2019-01-20T12:55:42.444Z,1.37
2019-01-20T12:58:11.628Z,1.13
2019-01-20T13:00:40.855Z,1.09
2019-01-20T13:03:10.072Z,1.15
2019-01-20T13:05:39.369Z,0.99
2019-01-20T13:08:08.620Z,0.99
2019-01-20T13:10:37.943Z,1.20
2019-01-20T13:13:07.224Z,1.17
2019-01-20T13:15:36.928Z,1.12
2019-01-20T13:18:06.199Z,1.01
2019-01-20T13:20:35.534Z,0.91
2019-01-20T13:23:04.697Z,0.86
2019-01-20T13:25:33.947Z,0.89
2019-01-20T13:28:03.051Z,0.99
2019-01-20T13:30:32.188Z,0.88
2019-01-20T13:33:01.616Z,0.82
2019-01-20T13:35:31.085Z,0.89
2019-01-20T13:38:08.870Z,0.84
2019-01-20T13:40:50.874Z,0.75
2019-01-20T13:43:20.238Z,0.77
2019-01-20T13:45:49.521Z,0.87
2019-01-20T13:48:18.770Z,0.70
2019-01-20T13:50:48.044Z,0.74
2019-01-20T13:53:17.161Z,0.66
2019-01-20T13:55:47.279Z,0.69
2019-01-20T13:58:17.463Z,0.73
2019-01-20T14:00:46.864Z,0.73
2019-01-20T14:03:15.988Z,0.73
2019-01-20T14:05:45.351Z,0.67
2019-01-20T14:08:15.240Z,0.68
2019-01-20T14:10:44.516Z,0.79
2019-01-20T14:13:14.967Z,0.73
2019-01-20T14:15:44.377Z,0.72
2019-01-20T14:18:13.843Z,0.72
2019-01-20T14:20:43.233Z,0.61
2019-01-20T14:23:12.399Z,0.75
2019-01-20T14:25:41.517Z,0.76
2019-01-20T14:28:10.702Z,0.77
2019-01-20T14:30:40.012Z,0.76
2019-01-20T14:33:09.474Z,0.84
2019-01-20T14:35:38.627Z,0.83
2019-01-20T14:38:07.923Z,0.74
2019-01-20T14:40:37.050Z,0.82
2019-01-20T14:43:06.534Z,0.72
2019-01-20T14:45:35.851Z,0.67
2019-01-20T14:48:05.641Z,0.72
2019-01-20T14:50:35.119Z,0.75
2019-01-20T14:53:04.990Z,0.61
2019-01-20T14:55:34.325Z,0.62
2019-01-20T14:58:03.644Z,0.64
2019-01-20T15:00:35.057Z,0.69
2019-01-20T15:03:04.721Z,0.69
2019-01-20T15:05:34.274Z,0.53
2019-01-20T15:08:04.244Z,0.53
2019-01-20T15:10:33.368Z,0.52
2019-01-20T15:13:02.874Z,0.41
2019-01-20T15:15:34.905Z,0.42
2019-01-20T15:18:04.859Z,0.37
2019-01-20T15:20:34.434Z,0.37
2019-01-20T15:23:03.719Z,0.38
2019-01-20T15:25:33.412Z,0.32
2019-01-20T15:28:02.852Z,0.28
2019-01-20T15:30:32.494Z,0.40
2019-01-20T15:33:02.818Z,0.37
2019-01-20T15:35:32.128Z,0.40
2019-01-20T15:38:01.587Z,0.43
2019-01-20T15:40:31.024Z,0.39
2019-01-20T15:43:00.227Z,0.29
2019-01-20T15:45:30.266Z,0.30
2019-01-20T15:47:59.578Z,0.33
2019-01-20T15:50:31.823Z,0.17
2019-01-20T15:53:01.955Z,0.01
2019-01-20T15:55:31.742Z,0.03
2019-01-20T15:58:01.051Z,0.11
2019-01-20T16:00:31.945Z,0.00
2019-01-20T16:03:01.111Z,0.16
2019-01-20T16:05:30.995Z,0.15
2019-01-20T16:08:00.199Z,0.08
2019-01-20T16:10:29.505Z,0.17
2019-01-20T16:12:58.767Z,0.17
2019-01-20T16:15:33.669Z,0.07
2019-01-20T16:18:02.903Z,0.03
2019-01-20T16:20:33.129Z,0.10
2019-01-20T16:23:03.569Z,0.25
2019-01-20T16:25:37.376Z,0.23
2019-01-20T16:28:07.904Z,0.32
2019-01-20T16:30:39.144Z,0.28
2019-01-20T16:33:08.426Z,0.21
2019-01-20T16:35:37.534Z,0.29
2019-01-20T16:38:08.509Z,0.24
2019-01-20T16:40:38.179Z,0.10
2019-01-20T16:43:07.806Z,0.13
2019-01-20T16:45:42.116Z,0.12
2019-01-20T16:48:11.666Z,0.22
2019-01-20T16:50:41.115Z,0.29
2019-01-20T16:53:10.596Z,0.26
2019-01-20T16:55:39.889Z,0.32
2019-01-20T16:58:09.428Z,0.24
2019-01-20T17:00:41.250Z,0.22
2019-01-20T17:03:10.401Z,0.29
2019-01-20T17:05:39.751Z,0.27
2019-01-20T17:08:09.156Z,0.19
2019-01-20T17:10:40.633Z,0.27
2019-01-20T17:13:10.710Z,0.19
2019-01-20T17:15:42.144Z,0.33
2019-01-20T17:18:12.397Z,0.30
2019-01-20T17:20:41.577Z,0.34
2019-01-20T17:23:10.874Z,0.22
2019-01-20T17:25:39.951Z,0.26
2019-01-20T17:28:09.386Z,0.31
2019-01-20T17:30:39.341Z,0.16
2019-01-20T17:33:10.740Z,0.27
2019-01-20T17:35:39.947Z,0.24
2019-01-20T17:38:09.355Z,0.21
2019-01-20T17:40:38.559Z,0.35
2019-01-20T17:43:08.143Z,0.41
2019-01-20T17:45:48.388Z,0.35
2019-01-20T17:48:13.873Z,0.40
2019-01-20T17:50:44.581Z,0.26
2019-01-20T17:53:14.748Z,0.35
2019-01-20T17:55:44.361Z,0.42
2019-01-20T17:58:13.875Z,0.41
2019-01-20T18:01:11.607Z,0.21
2019-01-20T18:03:40.850Z,0.20
2019-01-20T18:06:10.075Z,0.30
2019-01-20T18:08:39.559Z,0.29
2019-01-20T18:11:09.166Z,0.19
2019-01-20T18:13:38.365Z,0.29
2019-01-20T18:16:07.657Z,0.36
2019-01-20T18:18:36.937Z,0.38
2019-01-20T18:21:06.557Z,0.32
2019-01-20T18:23:36.210Z,0.33
2019-01-20T18:26:05.744Z,0.42
2019-01-20T18:28:36.934Z,0.43
2019-01-20T18:31:06.227Z,0.44
2019-01-20T18:33:36.056Z,0.21
2019-01-20T18:36:05.498Z,0.22
2019-01-20T18:38:34.906Z,0.33
2019-01-20T18:41:04.784Z,0.38
2019-01-20T18:43:34.151Z,0.31
2019-01-20T18:46:03.888Z,0.21
2019-01-20T18:48:33.374Z,0.27
2019-01-20T18:51:02.864Z,0.28
2019-01-20T18:53:32.013Z,0.33
2019-01-20T18:56:01.389Z,0.14
2019-01-20T18:58:30.559Z,0.24
2019-01-20T19:01:00.190Z,0.06
2019-01-20T19:03:29.679Z,0.10
2019-01-20T19:05:59.212Z,0.17
2019-01-20T19:08:28.358Z,0.27
2019-01-20T19:10:57.964Z,0.36
2019-01-20T19:13:27.702Z,0.39
2019-01-20T19:15:56.834Z,0.49
2019-01-20T19:18:26.238Z,0.40
2019-01-20T19:20:55.550Z,0.26
2019-01-20T19:23:24.792Z,0.31
2019-01-20T19:25:54.445Z,0.28
2019-01-20T19:28:23.830Z,0.07
2019-01-20T19:30:53.338Z,0.06
2019-01-20T19:33:22.842Z,0.09
2019-01-20T19:35:52.422Z,0.10
2019-01-20T19:38:21.688Z,0.09
2019-01-20T19:40:50.852Z,0.07
2019-01-20T19:43:20.212Z,0.00
2019-01-20T19:45:49.411Z,0.00
2019-01-20T19:48:20.227Z,-0.09
2019-01-20T19:50:49.678Z,-0.13
2019-01-20T19:53:19.289Z,-0.20
2019-01-20T19:55:48.925Z,-0.11
2019-01-20T19:58:18.292Z,-0.07
2019-01-20T20:00:47.630Z,-0.13
2019-01-20T20:03:17.014Z,-0.08
2019-01-20T20:05:46.707Z,-0.35
2019-01-20T20:08:16.242Z,-0.12
2019-01-20T20:10:45.614Z,-0.15
2019-01-20T20:13:14.911Z,-0.10
2019-01-20T20:15:44.403Z,0.01
2019-01-20T20:18:13.583Z,-0.07
2019-01-20T20:20:43.029Z,-0.27
2019-01-20T20:23:12.348Z,-0.12
2019-01-20T20:25:41.824Z,0.01
2019-01-20T20:28:10.977Z,-0.11
2019-01-20T20:30:40.246Z,-0.26
2019-01-20T20:33:09.432Z,-0.29
2019-01-20T20:35:38.802Z,-0.22
2019-01-20T20:38:08.566Z,-0.20
2019-01-20T20:40:38.089Z,-0.20
2019-01-20T20:43:07.258Z,-0.30
2019-01-20T20:45:36.848Z,-0.36
2019-01-20T20:48:06.150Z,-0.44
2019-01-20T20:50:35.440Z,-0.33
2019-01-20T20:53:04.934Z,-0.31
2019-01-20T20:55:34.403Z,-0.31
2019-01-20T20:58:03.548Z,-0.33
2019-01-20T21:00:38.785Z,-0.33
2019-01-20T21:03:14.532Z,-0.43
2019-01-20T21:05:43.890Z,-0.48
2019-01-20T21:08:13.154Z,-0.48
2019-01-20T21:10:42.371Z,-0.46
2019-01-20T21:13:11.859Z,-0.44
2019-01-20T21:15:41.063Z,-0.44
2019-01-20T21:18:10.325Z,-0.42
2019-01-20T21:20:39.533Z,-0.41
2019-01-20T21:23:12.274Z,-0.33
2019-01-20T21:25:40.420Z,-0.32
2019-01-20T21:28:10.857Z,-0.43
2019-01-20T21:30:42.125Z,-0.42
2019-01-20T21:33:11.493Z,-0.31
2019-01-20T21:35:40.728Z,-0.39
2019-01-20T21:38:10.429Z,-0.28
2019-01-20T21:40:39.882Z,-0.35
2019-01-20T21:43:09.146Z,-0.29
2019-01-20T21:45:38.253Z,-0.37
2019-01-20T21:48:07.724Z,-0.39
2019-01-20T21:50:37.524Z,-0.44
2019-01-20T21:53:09.808Z,-0.50
2019-01-20T21:55:40.006Z,-0.49
2019-01-20T21:58:09.216Z,-0.51
2019-01-20T22:00:38.520Z,-0.44
2019-01-20T22:03:07.815Z,-0.48
2019-01-20T22:05:37.089Z,-0.48
2019-01-20T22:08:06.307Z,-0.45
2019-01-20T22:10:35.657Z,-0.36
2019-01-20T22:13:04.954Z,-0.35
2019-01-20T22:15:34.103Z,-0.33
2019-01-20T22:18:03.354Z,-0.30
2019-01-20T22:20:32.646Z,-0.33
2019-01-20T22:23:02.247Z,-0.37
2019-01-20T22:25:31.570Z,-0.36
2019-01-20T22:28:01.040Z,-0.49
2019-01-20T22:30:30.382Z,-0.49
2019-01-20T22:32:59.805Z,-0.45
2019-01-20T22:35:29.303Z,-0.53
2019-01-20T22:37:58.675Z,-0.53
2019-01-20T22:40:28.181Z,-0.61
2019-01-20T22:42:58.574Z,-0.70
2019-01-20T22:45:28.718Z,-0.78
2019-01-20T22:47:58.350Z,-0.76
2019-01-20T22:50:27.775Z,-0.91
2019-01-20T22:52:57.082Z,-0.90
2019-01-20T22:55:26.227Z,-1.00
2019-01-20T22:57:55.556Z,-1.08
2019-01-20T23:00:47.056Z,-1.14
2019-01-20T23:03:18.186Z,-1.29
2019-01-20T23:05:48.537Z,-1.30
2019-01-20T23:08:17.736Z,-1.28
2019-01-20T23:10:46.872Z,-1.39
2019-01-20T23:13:16.061Z,-1.45
2019-01-20T23:15:45.532Z,-1.36
2019-01-20T23:18:14.704Z,-1.36
2019-01-20T23:20:44.095Z,-1.36
2019-01-20T23:23:13.446Z,-2.06
2019-01-20T23:25:42.725Z,-1.38
2019-01-20T23:28:12.120Z,-1.46
2019-01-20T23:30:41.481Z,-1.44
2019-01-20T23:33:10.834Z,-1.43
2019-01-20T23:35:40.146Z,-1.46
2019-01-20T23:38:09.296Z,-1.53
2019-01-20T23:40:38.511Z,-1.72
2019-01-20T23:43:07.930Z,-1.58
2019-01-20T23:45:37.037Z,-1.60
2019-01-20T23:48:06.168Z,-1.63
2019-01-20T23:50:35.563Z,-1.60
2019-01-20T23:53:04.841Z,-1.71
2019-01-20T23:55:35.338Z,-1.69
2019-01-20T23:58:05.819Z,-1.87
